createdAt,value
2019-05-21T00:00:46.797Z,66.19
2019-05-21T00:03:17.427Z,66.07
2019-05-21T00:05:48.060Z,66.27
2019-05-21T00:08:18.619Z,66.04
2019-05-21T00:10:49.199Z,66.23
2019-05-21T00:13:19.825Z,65.96
2019-05-21T00:15:50.480Z,66.17
2019-05-21T00:18:21.115Z,65.97
2019-05-21T00:20:51.692Z,66.01
2019-05-21T00:23:22.401Z,66.01
2019-05-21T00:25:53.118Z,66.06
2019-05-21T00:28:39.753Z,66.32
2019-05-21T00:31:46.547Z,65.96
2019-05-21T00:34:53.660Z,66.57
2019-05-21T00:38:00.678Z,66.22
2019-05-21T00:41:07.916Z,66.56
2019-05-21T00:43:47.376Z,66.32
2019-05-21T00:46:18.026Z,67.22
2019-05-21T00:48:48.657Z,66.91
2019-05-21T00:51:19.246Z,67.37
2019-05-21T00:53:49.803Z,67.15
2019-05-21T00:56:20.376Z,66.64
2019-05-21T00:58:51.153Z,66.33
2019-05-21T01:01:22.000Z,66.15
2019-05-21T01:03:52.581Z,66.43
2019-05-21T01:06:23.444Z,66.23
2019-05-21T01:08:54.039Z,66.59
2019-05-21T01:11:24.723Z,66.82
2019-05-21T01:13:55.544Z,67.45
2019-05-21T01:16:26.142Z,67.70
2019-05-21T01:18:56.721Z,68.00
2019-05-21T01:21:27.303Z,68.18
2019-05-21T01:23:57.985Z,67.54
2019-05-21T01:26:29.050Z,67.04
2019-05-21T01:28:59.742Z,67.24
2019-05-21T01:31:30.326Z,67.23
2019-05-21T01:34:00.919Z,67.97
2019-05-21T01:36:31.503Z,67.53
2019-05-21T01:39:02.081Z,68.31
2019-05-21T01:41:33.009Z,68.14
2019-05-21T01:44:04.785Z,68.32
2019-05-21T01:46:35.372Z,68.03
2019-05-21T01:49:05.935Z,68.09
2019-05-21T01:51:36.478Z,67.97
2019-05-21T01:54:07.045Z,68.13
2019-05-21T01:56:37.607Z,68.02
2019-05-21T01:59:09.229Z,67.91
2019-05-21T02:01:39.796Z,68.21
2019-05-21T02:04:10.370Z,68.19
2019-05-21T02:06:41.004Z,68.46
2019-05-21T02:09:11.555Z,68.43
2019-05-21T02:11:42.166Z,67.70
2019-05-21T02:14:12.742Z,67.36
2019-05-21T02:16:43.305Z,67.25
2019-05-21T02:19:13.884Z,67.06
2019-05-21T02:21:44.434Z,66.76
2019-05-21T02:24:14.986Z,67.00
2019-05-21T02:26:46.514Z,66.50
2019-05-21T02:29:17.093Z,66.48
2019-05-21T02:31:47.648Z,66.16
2019-05-21T02:34:18.229Z,66.91
2019-05-21T02:36:50.011Z,66.54
2019-05-21T02:39:21.632Z,66.71
2019-05-21T02:41:52.224Z,66.91
2019-05-21T02:44:22.776Z,67.34
2019-05-21T02:46:53.409Z,67.04
2019-05-21T02:49:23.985Z,67.11
2019-05-21T02:51:54.925Z,66.79
2019-05-21T02:54:40.245Z,66.73
2019-05-21T02:56:58.721Z,66.67
2019-05-21T02:59:29.293Z,66.26
2019-05-21T03:02:01.603Z,66.02
2019-05-21T03:04:33.242Z,65.92
2019-05-21T03:07:19.129Z,66.04
2019-05-21T03:09:50.109Z,66.41
2019-05-21T03:12:20.905Z,66.54
2019-05-21T03:14:51.598Z,66.56
2019-05-21T03:17:22.218Z,66.38
2019-05-21T03:19:52.771Z,67.04
2019-05-21T03:22:23.341Z,67.07
2019-05-21T03:24:53.925Z,66.96
2019-05-21T03:27:24.534Z,67.55
2019-05-21T03:29:55.085Z,67.45
2019-05-21T03:32:26.181Z,67.38
2019-05-21T03:34:56.912Z,67.43
2019-05-21T03:37:27.575Z,67.83
2019-05-21T03:39:58.269Z,67.34
2019-05-21T03:42:29.081Z,67.16
2019-05-21T03:45:01.100Z,66.71
2019-05-21T03:47:32.065Z,66.79
2019-05-21T03:50:03.332Z,67.41
2019-05-21T03:52:34.492Z,67.47
2019-05-21T03:55:06.241Z,67.58
2019-05-21T03:57:36.847Z,67.07
2019-05-21T04:00:09.752Z,67.03
2019-05-21T04:02:40.408Z,67.42
2019-05-21T04:05:11.497Z,66.74
2019-05-21T04:07:42.082Z,66.85
2019-05-21T04:10:17.500Z,66.16
2019-05-21T04:13:06.871Z,66.23
2019-05-21T04:15:53.074Z,66.27
2019-05-21T04:18:31.202Z,65.99
2019-05-21T04:21:01.777Z,65.89
2019-05-21T04:23:32.361Z,66.49
2019-05-21T04:26:02.944Z,66.77
2019-05-21T04:28:33.523Z,66.79
2019-05-21T04:31:04.163Z,66.50
2019-05-21T04:33:34.730Z,66.34
2019-05-21T04:36:05.438Z,66.22
2019-05-21T04:38:36.178Z,66.50
2019-05-21T04:41:06.807Z,66.12
2019-05-21T04:43:37.407Z,66.50
2019-05-21T04:46:08.006Z,66.50
2019-05-21T04:48:38.581Z,66.24
2019-05-21T04:51:13.487Z,66.01
2019-05-21T04:53:41.616Z,66.14
2019-05-21T04:56:12.451Z,66.06
2019-05-21T04:58:43.046Z,65.80
2019-05-21T05:01:13.702Z,65.81
2019-05-21T05:03:44.715Z,66.31
2019-05-21T05:06:15.631Z,66.23
2019-05-21T05:08:46.380Z,62.99
2019-05-21T05:11:17.087Z,62.57
2019-05-21T05:13:48.374Z,62.70
2019-05-21T05:16:19.077Z,62.83
2019-05-21T05:18:49.910Z,63.77
2019-05-21T05:21:21.543Z,64.64
2019-05-21T05:23:52.138Z,64.16
2019-05-21T05:26:22.712Z,63.00
2019-05-21T05:28:53.271Z,62.77
2019-05-21T05:31:23.840Z,63.14
2019-05-21T05:33:54.751Z,62.62
2019-05-21T05:36:25.460Z,52.37
2019-05-21T05:38:56.185Z,45.63
2019-05-21T05:41:27.337Z,39.91
2019-05-21T05:43:58.336Z,39.91
2019-05-21T05:46:29.287Z,38.21
2019-05-21T05:49:01.953Z,35.33
2019-05-21T05:51:32.957Z,36.31
2019-05-21T05:54:07.585Z,35.19
2019-05-21T05:56:37.834Z,34.95
2019-05-21T05:59:08.744Z,32.09
2019-05-21T06:01:39.387Z,30.98
2019-05-21T06:04:09.954Z,31.98
2019-05-21T06:06:40.636Z,31.91
2019-05-21T06:09:11.200Z,30.05
2019-05-21T06:11:41.746Z,30.29
2019-05-21T06:14:12.315Z,31.05
2019-05-21T06:16:42.897Z,29.95
2019-05-21T06:19:14.541Z,29.73
2019-05-21T06:21:45.322Z,29.51
2019-05-21T06:24:16.161Z,28.80
2019-05-21T06:26:46.712Z,28.11
2019-05-21T06:29:17.274Z,28.14
2019-05-21T06:31:47.976Z,27.97
2019-05-21T06:34:18.541Z,28.07
2019-05-21T06:36:49.137Z,29.38
2019-05-21T06:39:19.787Z,27.76
2019-05-21T06:41:50.362Z,29.31
2019-05-21T06:44:20.965Z,28.86
2019-05-21T06:46:51.661Z,29.00
2019-05-21T06:49:22.220Z,27.49
2019-05-21T06:51:54.272Z,28.81
2019-05-21T06:54:24.839Z,30.56
2019-05-21T06:56:55.435Z,27.99
2019-05-21T06:59:26.099Z,27.11
2019-05-21T07:01:56.840Z,28.64
2019-05-21T07:04:27.559Z,27.22
2019-05-21T07:06:59.228Z,28.45
2019-05-21T07:09:29.914Z,27.99
2019-05-21T07:12:00.485Z,28.12
2019-05-21T07:14:31.048Z,27.85
2019-05-21T07:17:01.623Z,28.84
2019-05-21T07:19:32.175Z,29.07
2019-05-21T07:22:12.034Z,29.87
2019-05-21T07:24:35.076Z,28.66
2019-05-21T07:27:05.717Z,28.23
2019-05-21T07:29:37.262Z,30.32
2019-05-21T07:32:07.842Z,27.66
2019-05-21T07:34:39.499Z,27.25
2019-05-21T07:37:10.130Z,27.19
2019-05-21T07:39:40.691Z,28.30
2019-05-21T07:42:14.315Z,28.43
2019-05-21T07:44:47.209Z,28.17
2019-05-21T07:47:17.776Z,26.21
2019-05-21T07:49:48.327Z,26.62
2019-05-21T07:52:18.981Z,28.60
2019-05-21T07:54:49.554Z,28.90
2019-05-21T07:57:20.181Z,27.28
2019-05-21T07:59:51.753Z,26.80
2019-05-21T08:02:22.310Z,27.80
2019-05-21T08:04:52.884Z,28.20
2019-05-21T08:07:23.443Z,27.91
2019-05-21T08:09:54.023Z,29.29
2019-05-21T08:12:38.305Z,30.74
2019-05-21T08:14:56.870Z,29.55
2019-05-21T08:17:27.494Z,29.37
2019-05-21T08:20:08.739Z,30.09
2019-05-21T08:22:30.466Z,30.91
2019-05-21T08:25:01.051Z,29.43
2019-05-21T08:27:31.666Z,29.45
2019-05-21T08:30:02.249Z,30.44
2019-05-21T08:32:32.983Z,29.51
2019-05-21T08:35:04.328Z,29.98
2019-05-21T08:37:34.887Z,31.01
2019-05-21T08:40:07.832Z,31.69
2019-05-21T08:42:38.918Z,31.17
2019-05-21T08:45:10.507Z,32.17
2019-05-21T08:47:41.069Z,30.94
2019-05-21T08:50:12.523Z,30.68
2019-05-21T08:52:43.102Z,30.16
2019-05-21T08:55:13.836Z,29.33
2019-05-21T08:57:44.528Z,29.69
2019-05-21T09:00:17.799Z,29.35
2019-05-21T09:02:48.431Z,31.10
2019-05-21T09:05:19.377Z,31.36
2019-05-21T09:07:53.108Z,31.46
2019-05-21T09:10:22.385Z,30.17
2019-05-21T09:12:52.966Z,31.67
2019-05-21T09:15:25.480Z,28.88
2019-05-21T09:17:56.075Z,28.92
2019-05-21T09:20:26.780Z,28.28
2019-05-21T09:22:57.425Z,27.76
2019-05-21T09:25:28.022Z,28.96
2019-05-21T09:27:58.857Z,30.41
2019-05-21T09:30:29.499Z,31.74
2019-05-21T09:33:00.070Z,31.50
2019-05-21T09:35:30.731Z,33.03
2019-05-21T09:38:01.319Z,32.90
2019-05-21T09:40:32.045Z,31.24
2019-05-21T09:43:04.109Z,31.89
2019-05-21T09:45:34.765Z,33.13
2019-05-21T09:48:05.577Z,32.87
2019-05-21T09:50:37.273Z,32.49
2019-05-21T09:53:07.976Z,31.81
2019-05-21T09:55:38.547Z,31.01
2019-05-21T09:58:13.687Z,32.06
2019-05-21T10:01:02.348Z,30.79
2019-05-21T10:03:50.908Z,31.10
2019-05-21T10:06:21.502Z,31.82
2019-05-21T10:08:52.103Z,31.38
2019-05-21T10:11:23.626Z,31.84
2019-05-21T10:13:55.302Z,33.67
2019-05-21T10:16:25.867Z,34.15
2019-05-21T10:18:56.491Z,33.15
2019-05-21T10:21:27.168Z,34.55
2019-05-21T10:23:57.775Z,34.24
2019-05-21T10:26:28.467Z,33.20
2019-05-21T10:28:59.055Z,32.28
2019-05-21T10:31:29.750Z,31.79
2019-05-21T10:34:00.323Z,33.89
2019-05-21T10:36:30.884Z,32.22
2019-05-21T10:39:01.880Z,30.61
2019-05-21T10:41:34.346Z,31.13
2019-05-21T10:44:05.087Z,32.75
2019-05-21T10:46:35.664Z,32.78
2019-05-21T10:49:06.480Z,33.36
2019-05-21T10:51:37.153Z,33.70
2019-05-21T10:54:08.041Z,33.51
2019-05-21T10:56:48.127Z,32.89
2019-05-21T10:59:10.892Z,33.04
2019-05-21T11:01:55.066Z,34.68
2019-05-21T11:04:36.041Z,35.53
2019-05-21T11:07:07.181Z,36.59
2019-05-21T11:09:37.831Z,37.31
2019-05-21T11:12:09.382Z,37.96
2019-05-21T11:14:39.934Z,39.45
2019-05-21T11:17:12.072Z,42.83
2019-05-21T11:19:42.669Z,44.28
2019-05-21T11:22:13.226Z,42.48
2019-05-21T11:24:43.777Z,43.91
2019-05-21T11:27:14.418Z,46.66
2019-05-21T11:29:44.997Z,50.10
2019-05-21T11:32:15.573Z,50.33
2019-05-21T11:34:49.818Z,51.00
2019-05-21T11:37:18.476Z,55.39
2019-05-21T11:39:49.036Z,55.35
2019-05-21T11:42:19.597Z,56.84
2019-05-21T11:44:50.159Z,54.66
2019-05-21T11:47:20.789Z,53.90
2019-05-21T11:49:51.511Z,53.48
2019-05-21T11:52:22.125Z,53.22
2019-05-21T11:54:55.797Z,54.08
2019-05-21T11:57:25.213Z,54.59
2019-05-21T11:59:55.766Z,51.66
2019-05-21T12:02:26.324Z,51.08
2019-05-21T12:04:56.882Z,51.92
2019-05-21T12:07:27.443Z,52.51
2019-05-21T12:09:58.020Z,51.29
2019-05-21T12:12:28.565Z,50.34
2019-05-21T12:14:59.140Z,50.28
2019-05-21T12:17:29.987Z,50.08
2019-05-21T12:20:00.568Z,48.05
2019-05-21T12:22:31.377Z,54.67
2019-05-21T12:25:02.034Z,58.29
2019-05-21T12:27:32.598Z,50.64
2019-05-21T12:30:04.983Z,52.75
2019-05-21T12:32:35.618Z,52.22
2019-05-21T12:35:07.041Z,49.48
2019-05-21T12:37:37.598Z,47.05
2019-05-21T12:40:09.532Z,49.96
2019-05-21T12:42:40.703Z,46.81
2019-05-21T12:45:11.415Z,48.56
2019-05-21T12:47:41.969Z,50.75
2019-05-21T12:50:14.104Z,53.10
2019-05-21T12:52:44.692Z,53.09
2019-05-21T12:55:17.820Z,55.66
2019-05-21T12:57:48.379Z,57.87
2019-05-21T13:00:19.780Z,59.55
2019-05-21T13:02:50.951Z,59.86
2019-05-21T13:05:21.511Z,60.56
2019-05-21T13:07:52.479Z,60.55
2019-05-21T13:10:23.105Z,58.60
2019-05-21T13:12:53.939Z,59.76
2019-05-21T13:15:24.504Z,59.02
2019-05-21T13:17:55.091Z,58.94
2019-05-21T13:20:25.703Z,58.20
2019-05-21T13:22:56.280Z,58.70
2019-05-21T13:25:27.188Z,57.01
2019-05-21T13:27:57.954Z,57.75
2019-05-21T13:30:28.847Z,57.28
2019-05-21T13:32:59.372Z,55.70
2019-05-21T13:35:30.002Z,55.91
2019-05-21T13:38:01.724Z,57.19
2019-05-21T13:40:32.738Z,56.37
2019-05-21T13:43:03.518Z,54.89
2019-05-21T13:45:35.169Z,56.28
2019-05-21T13:48:06.035Z,57.48
2019-05-21T13:50:36.595Z,56.89
2019-05-21T13:53:07.236Z,56.62
2019-05-21T13:55:37.809Z,56.15
2019-05-21T13:58:08.510Z,56.14
2019-05-21T14:00:40.807Z,54.75
2019-05-21T14:03:11.607Z,55.13
2019-05-21T14:05:42.444Z,54.23
2019-05-21T14:08:14.683Z,53.92
2019-05-21T14:10:46.758Z,53.80
2019-05-21T14:13:17.506Z,52.27
2019-05-21T14:15:48.088Z,52.13
2019-05-21T14:18:20.364Z,54.08
2019-05-21T14:20:52.638Z,54.33
2019-05-21T14:23:23.237Z,55.21
2019-05-21T14:25:53.810Z,54.61
2019-05-21T14:28:24.474Z,55.20
2019-05-21T14:30:55.038Z,55.69
2019-05-21T14:33:26.563Z,55.23
2019-05-21T14:35:57.353Z,55.33
2019-05-21T14:38:27.925Z,55.53
2019-05-21T14:41:00.208Z,57.17
2019-05-21T14:43:32.275Z,57.47
2019-05-21T14:46:02.947Z,57.70
2019-05-21T14:48:35.145Z,56.98
2019-05-21T14:51:05.821Z,57.24
2019-05-21T14:53:36.534Z,57.70
2019-05-21T14:56:08.144Z,58.36
2019-05-21T14:58:38.720Z,57.04
2019-05-21T15:01:09.524Z,57.53
2019-05-21T15:03:40.823Z,57.21
2019-05-21T15:06:11.566Z,57.58
2019-05-21T15:08:42.186Z,57.09
2019-05-21T15:11:15.937Z,56.46
2019-05-21T15:13:46.613Z,56.21
2019-05-21T15:16:20.364Z,56.97
2019-05-21T15:18:51.803Z,56.25
2019-05-21T15:21:26.846Z,55.98
2019-05-21T15:23:57.762Z,56.46
2019-05-21T15:26:28.573Z,56.18
2019-05-21T15:28:59.110Z,56.43
2019-05-21T15:31:30.158Z,55.81
2019-05-21T15:34:01.159Z,55.86
2019-05-21T15:36:31.893Z,55.90
2019-05-21T15:39:02.486Z,55.47
2019-05-21T15:41:34.135Z,55.40
2019-05-21T15:44:04.979Z,56.09
2019-05-21T15:46:47.821Z,56.12
2019-05-21T15:49:08.636Z,57.54
2019-05-21T15:51:39.225Z,57.25
2019-05-21T15:54:09.813Z,57.69
2019-05-21T15:56:40.427Z,56.50
2019-05-21T15:59:11.024Z,56.56
2019-05-21T16:01:41.804Z,55.45
2019-05-21T16:04:16.067Z,55.35
2019-05-21T16:06:44.626Z,56.10
2019-05-21T16:09:15.220Z,55.55
2019-05-21T16:11:45.874Z,56.64
2019-05-21T16:14:17.395Z,56.31
2019-05-21T16:16:47.945Z,56.69
2019-05-21T16:19:18.612Z,56.09
2019-05-21T16:21:49.306Z,54.60
2019-05-21T16:24:19.883Z,55.63
2019-05-21T16:26:50.468Z,55.59
2019-05-21T16:29:21.129Z,55.79
2019-05-21T16:31:52.066Z,56.12
2019-05-21T16:34:22.699Z,56.04
2019-05-21T16:36:53.453Z,57.02
2019-05-21T16:39:25.398Z,57.35
2019-05-21T16:41:55.951Z,57.88
2019-05-21T16:44:26.616Z,58.43
2019-05-21T16:46:58.947Z,58.74
2019-05-21T16:49:29.508Z,58.42
2019-05-21T16:52:00.088Z,59.23
2019-05-21T16:54:30.872Z,59.78
2019-05-21T16:57:01.581Z,60.40
2019-05-21T16:59:32.876Z,60.93
2019-05-21T17:02:06.074Z,60.92
2019-05-21T17:04:36.735Z,61.27
2019-05-21T17:07:07.361Z,61.43
2019-05-21T17:09:37.940Z,61.18
2019-05-21T17:12:09.158Z,61.02
2019-05-21T17:14:40.175Z,61.31
2019-05-21T17:17:10.809Z,61.60
2019-05-21T17:19:41.491Z,61.56
2019-05-21T17:22:12.276Z,61.93
2019-05-21T17:24:43.196Z,62.47
2019-05-21T17:27:14.695Z,62.37
2019-05-21T17:29:45.333Z,63.10
2019-05-21T17:32:15.947Z,62.99
2019-05-21T17:34:46.538Z,64.17
2019-05-21T17:37:17.247Z,63.61
2019-05-21T17:39:49.297Z,63.55
2019-05-21T17:42:19.896Z,63.44
2019-05-21T17:44:50.450Z,63.02
2019-05-21T17:47:23.610Z,63.42
2019-05-21T17:49:54.807Z,63.29
2019-05-21T17:52:26.699Z,62.71
2019-05-21T17:54:57.354Z,62.36
2019-05-21T17:57:29.343Z,62.38
2019-05-21T17:59:59.978Z,62.65
2019-05-21T18:02:32.182Z,63.24
2019-05-21T18:05:03.124Z,64.32
2019-05-21T18:07:38.572Z,64.32
2019-05-21T18:10:09.992Z,64.72
2019-05-21T18:12:40.620Z,65.33
2019-05-21T18:15:13.365Z,66.54
2019-05-21T18:17:44.121Z,66.39
2019-05-21T18:20:15.973Z,66.72
2019-05-21T18:22:48.747Z,65.88
2019-05-21T18:25:19.461Z,67.76
2019-05-21T18:27:50.211Z,69.12
2019-05-21T18:30:21.188Z,68.61
2019-05-21T18:32:53.202Z,68.61
2019-05-21T18:35:24.092Z,69.40
2019-05-21T18:37:55.038Z,70.70
2019-05-21T18:40:25.743Z,70.70
2019-05-21T18:42:56.782Z,70.44
2019-05-21T18:45:27.473Z,71.15
2019-05-21T18:47:58.074Z,71.41
2019-05-21T18:50:36.120Z,75.37
2019-05-21T18:53:01.193Z,81.33
2019-05-21T18:55:32.855Z,83.51
2019-05-21T18:58:03.625Z,84.79
2019-05-21T19:00:34.349Z,85.66
2019-05-21T19:03:05.321Z,86.13
2019-05-21T19:05:36.017Z,84.64
2019-05-21T19:08:06.648Z,86.87
2019-05-21T19:10:38.269Z,88.45
2019-05-21T19:13:10.859Z,89.20
2019-05-21T19:15:41.748Z,89.81
2019-05-21T19:18:13.637Z,90.08
2019-05-21T19:20:45.461Z,89.99
2019-05-21T19:23:16.211Z,89.99
2019-05-21T19:25:48.396Z,89.47
2019-05-21T19:28:19.306Z,89.75
2019-05-21T19:30:50.048Z,88.53
2019-05-21T19:33:21.918Z,89.00
2019-05-21T19:35:54.074Z,89.46
2019-05-21T19:38:26.123Z,88.64
2019-05-21T19:40:56.859Z,88.62
2019-05-21T19:43:27.505Z,89.50
2019-05-21T19:45:58.643Z,89.27
2019-05-21T19:48:30.407Z,90.57
2019-05-21T19:51:01.015Z,90.31
2019-05-21T19:53:32.067Z,90.91
2019-05-21T19:56:05.409Z,90.70
2019-05-21T19:58:37.209Z,90.50
2019-05-21T20:01:08.521Z,90.32
2019-05-21T20:03:42.465Z,90.11
2019-05-21T20:06:16.617Z,90.46
2019-05-21T20:08:48.431Z,91.09
2019-05-21T20:11:20.860Z,91.08
2019-05-21T20:13:54.365Z,90.47
2019-05-21T20:16:25.850Z,90.14
2019-05-21T20:18:57.053Z,88.45
2019-05-21T20:21:29.194Z,88.42
2019-05-21T20:24:02.239Z,88.22
2019-05-21T20:26:34.927Z,87.93
2019-05-21T20:29:09.365Z,87.60
2019-05-21T20:31:41.028Z,87.11
2019-05-21T20:34:12.921Z,87.01
2019-05-21T20:36:45.366Z,86.21
2019-05-21T20:39:16.535Z,86.54
2019-05-21T20:41:47.818Z,86.85
2019-05-21T20:44:18.545Z,86.55
2019-05-21T20:46:49.968Z,85.33
2019-05-21T20:49:20.555Z,84.75
2019-05-21T20:51:52.006Z,86.05
2019-05-21T20:54:23.220Z,86.11
2019-05-21T20:56:54.814Z,86.36
2019-05-21T20:59:25.503Z,86.32
2019-05-21T21:01:57.445Z,86.68
2019-05-21T21:04:28.429Z,87.08
2019-05-21T21:07:01.023Z,86.11
2019-05-21T21:09:31.718Z,87.82
2019-05-21T21:12:02.997Z,86.32
2019-05-21T21:14:33.655Z,86.79
2019-05-21T21:17:05.988Z,85.56
2019-05-21T21:19:36.787Z,85.65
2019-05-21T21:24:29.140Z,84.96
2019-05-21T21:27:01.178Z,86.12
2019-05-21T21:29:31.749Z,85.77
2019-05-21T21:32:02.723Z,84.80
2019-05-21T21:34:33.804Z,83.90
2019-05-21T21:37:05.699Z,84.88
2019-05-21T21:39:38.035Z,85.50
2019-05-21T21:42:08.702Z,85.84
2019-05-21T21:44:41.710Z,87.19
2019-05-21T21:47:12.772Z,86.44
2019-05-21T21:49:44.121Z,86.59
2019-05-21T21:52:16.184Z,85.49
2019-05-21T21:54:47.293Z,85.79
2019-05-21T21:57:18.017Z,86.09
2019-05-21T21:59:48.592Z,87.40
2019-05-21T22:02:28.462Z,86.79
2019-05-21T22:04:59.766Z,87.40
2019-05-21T22:07:31.904Z,86.08
2019-05-21T22:10:04.673Z,86.21
2019-05-21T22:12:37.198Z,86.18
2019-05-21T22:15:08.281Z,87.27
2019-05-21T22:17:42.342Z,87.29
2019-05-21T22:20:14.229Z,88.15
2019-05-21T22:22:45.942Z,87.14
2019-05-21T22:25:17.878Z,86.67
2019-05-21T22:27:48.452Z,85.82
2019-05-21T22:30:19.771Z,84.63
2019-05-21T22:32:50.333Z,83.91
2019-05-21T22:38:40.360Z,84.58
2019-05-21T22:41:10.957Z,85.37
2019-05-21T22:43:41.779Z,84.91
2019-05-21T22:46:12.355Z,84.22
2019-05-21T22:48:43.021Z,83.70
2019-05-21T22:51:13.643Z,85.16
2019-05-21T22:53:44.382Z,85.03
2019-05-21T22:56:15.029Z,86.02
2019-05-21T22:58:45.622Z,85.37
2019-05-21T23:01:16.377Z,84.76
2019-05-21T23:03:47.051Z,84.57
2019-05-21T23:06:17.712Z,84.30
2019-05-21T23:08:48.658Z,83.88
2019-05-21T23:11:22.862Z,83.71
2019-05-21T23:13:51.958Z,83.54
2019-05-21T23:16:23.553Z,83.44
2019-05-21T23:19:13.066Z,83.87
2019-05-21T23:21:46.266Z,84.30
2019-05-21T23:24:19.193Z,84.55
2019-05-21T23:26:50.009Z,84.86
2019-05-21T23:29:21.380Z,84.54
2019-05-21T23:31:53.195Z,84.80
2019-05-21T23:34:23.797Z,84.69
2019-05-21T23:36:54.795Z,85.00
2019-05-21T23:39:27.571Z,84.70
2019-05-21T23:41:58.220Z,84.55
2019-05-21T23:44:28.780Z,83.61
2019-05-21T23:46:59.717Z,84.41
2019-05-21T23:49:30.631Z,84.37
2019-05-21T23:52:01.333Z,84.44
2019-05-21T23:54:32.172Z,84.86
2019-05-21T23:57:03.012Z,86.79
2019-05-21T23:59:33.563Z,87.04
